sensor_id;sensor_type;location;lat;lon;timestamp;temperature;humidity
22192;DHT22;11261;52.456;10.850;2023-03-01T00:01:19;-1.00;99.90
22192;DHT22;11261;52.456;10.850;2023-03-01T00:03:49;-1.00;99.90
22192;DHT22;11261;52.456;10.850;2023-03-01T00:06:18;-1.10;99.90
22192;DHT22;11261;52.456;10.850;2023-03-01T00:08:46;-1.10;99.90
22192;DHT22;11261;52.456;10.850;2023-03-01T00:11:18;-1.20;99.90
22192;DHT22;11261;52.456;10.850;2023-03-01T00:13:48;-1.20;99.90
22192;DHT22;11261;52.456;10.850;2023-03-01T00:16:18;-1.20;99.90
22192;DHT22;11261;52.456;10.850;2023-03-01T00:18:47;-1.20;99.90
22192;DHT22;11261;52.456;10.850;2023-03-01T00:21:15;-1.20;99.90
22192;DHT22;11261;52.456;10.850;2023-03-01T00:23:44;-1.20;99.90
22192;DHT22;11261;52.456;10.850;2023-03-01T00:26:13;-1.20;99.90
22192;DHT22;11261;52.456;10.850;2023-03-01T00:28:43;-1.30;99.90
22192;DHT22;11261;52.456;10.850;2023-03-01T00:31:15;-1.30;99.90
22192;DHT22;11261;52.456;10.850;2023-03-01T00:33:44;-1.30;99.90
22192;DHT22;11261;52.456;10.850;2023-03-01T00:36:14;-1.30;99.90
22192;DHT22;11261;52.456;10.850;2023-03-01T00:38:45;-1.30;99.90
22192;DHT22;11261;52.456;10.850;2023-03-01T00:41:15;-1.40;99.90
22192;DHT22;11261;52.456;10.850;2023-03-01T00:43:45;-1.40;99.90
22192;DHT22;11261;52.456;10.850;2023-03-01T00:46:15;-1.40;99.90
22192;DHT22;11261;52.456;10.850;2023-03-01T00:48:43;-1.50;99.90
22192;DHT22;11261;52.456;10.850;2023-03-01T00:51:18;-1.50;99.90
22192;DHT22;11261;52.456;10.850;2023-03-01T00:53:50;-1.50;99.90
22192;DHT22;11261;52.456;10.850;2023-03-01T00:56:19;-1.50;99.90
22192;DHT22;11261;52.456;10.850;2023-03-01T00:58:49;-1.50;99.90
22192;DHT22;11261;52.456;10.850;2023-03-01T01:01:20;-1.60;99.90
22192;DHT22;11261;52.456;10.850;2023-03-01T01:03:51;-1.60;99.90
22192;DHT22;11261;52.456;10.850;2023-03-01T01:06:21;-1.60;99.90
22192;DHT22;11261;52.456;10.850;2023-03-01T01:08:50;-1.70;99.90
22192;DHT22;11261;52.456;10.850;2023-03-01T01:11:20;-1.70;99.90
22192;DHT22;11261;52.456;10.850;2023-03-01T01:13:50;-1.70;99.90
22192;DHT22;11261;52.456;10.850;2023-03-01T01:16:20;-1.70;99.90
22192;DHT22;11261;52.456;10.850;2023-03-01T01:18:49;-1.70;99.90
22192;DHT22;11261;52.456;10.850;2023-03-01T01:21:20;-1.70;99.90
22192;DHT22;11261;52.456;10.850;2023-03-01T01:23:49;-1.70;99.90
22192;DHT22;11261;52.456;10.850;2023-03-01T01:26:19;-1.70;99.90
22192;DHT22;11261;52.456;10.850;2023-03-01T01:28:50;-1.80;99.90
22192;DHT22;11261;52.456;10.850;2023-03-01T01:31:19;-1.90;99.90
22192;DHT22;11261;52.456;10.850;2023-03-01T01:33:50;-1.80;99.90
22192;DHT22;11261;52.456;10.850;2023-03-01T01:36:19;-1.80;99.90
22192;DHT22;11261;52.456;10.850;2023-03-01T01:38:48;-1.80;99.90
22192;DHT22;11261;52.456;10.850;2023-03-01T01:41:17;-1.90;99.90
22192;DHT22;11261;52.456;10.850;2023-03-01T01:43:47;-1.90;99.90
22192;DHT22;11261;52.456;10.850;2023-03-01T01:46:23;-2.00;99.90
22192;DHT22;11261;52.456;10.850;2023-03-01T01:48:58;-2.00;99.90
22192;DHT22;11261;52.456;10.850;2023-03-01T01:51:29;-2.00;99.90
22192;DHT22;11261;52.456;10.850;2023-03-01T01:54:10;-2.00;99.90
22192;DHT22;11261;52.456;10.850;2023-03-01T01:56:41;-2.00;99.90
22192;DHT22;11261;52.456;10.850;2023-03-01T01:59:12;-2.00;99.90
22192;DHT22;11261;52.456;10.850;2023-03-01T02:01:42;-2.00;99.90
22192;DHT22;11261;52.456;10.850;2023-03-01T02:04:11;-2.10;99.90
22192;DHT22;11261;52.456;10.850;2023-03-01T02:06:44;-2.10;99.90
22192;DHT22;11261;52.456;10.850;2023-03-01T02:09:15;-2.00;99.90
22192;DHT22;11261;52.456;10.850;2023-03-01T02:11:45;-2.00;99.90
22192;DHT22;11261;52.456;10.850;2023-03-01T02:14:14;-2.10;99.90
22192;DHT22;11261;52.456;10.850;2023-03-01T02:16:44;-2.20;99.90
22192;DHT22;11261;52.456;10.850;2023-03-01T02:19:17;-2.20;99.90
22192;DHT22;11261;52.456;10.850;2023-03-01T02:21:54;-2.30;99.90
22192;DHT22;11261;52.456;10.850;2023-03-01T02:24:30;-2.30;99.90
22192;DHT22;11261;52.456;10.850;2023-03-01T02:27:01;-2.30;99.90
22192;DHT22;11261;52.456;10.850;2023-03-01T02:29:32;-2.40;99.90
22192;DHT22;11261;52.456;10.850;2023-03-01T02:32:02;-2.50;99.90
22192;DHT22;11261;52.456;10.850;2023-03-01T02:34:31;-2.50;99.90
22192;DHT22;11261;52.456;10.850;2023-03-01T02:37:02;-2.40;99.90
22192;DHT22;11261;52.456;10.850;2023-03-01T02:39:36;-2.40;99.90
22192;DHT22;11261;52.456;10.850;2023-03-01T02:42:12;-2.30;99.90
22192;DHT22;11261;52.456;10.850;2023-03-01T02:44:42;-2.30;99.90
22192;DHT22;11261;52.456;10.850;2023-03-01T02:47:11;-2.30;99.90
22192;DHT22;11261;52.456;10.850;2023-03-01T02:49:39;-2.40;99.90
22192;DHT22;11261;52.456;10.850;2023-03-01T02:52:30;-2.40;99.90
22192;DHT22;11261;52.456;10.850;2023-03-01T02:55:03;-2.40;99.90
22192;DHT22;11261;52.456;10.850;2023-03-01T02:57:34;-2.40;99.90
22192;DHT22;11261;52.456;10.850;2023-03-01T03:00:06;-2.40;99.90
22192;DHT22;11261;52.456;10.850;2023-03-01T03:02:36;-2.40;99.90
22192;DHT22;11261;52.456;10.850;2023-03-01T03:05:07;-2.30;99.90
22192;DHT22;11261;52.456;10.850;2023-03-01T03:07:38;-2.40;99.90
22192;DHT22;11261;52.456;10.850;2023-03-01T03:10:09;-2.40;99.90
22192;DHT22;11261;52.456;10.850;2023-03-01T03:12:39;-2.40;99.90
22192;DHT22;11261;52.456;10.850;2023-03-01T03:15:10;-2.40;99.90
22192;DHT22;11261;52.456;10.850;2023-03-01T03:17:41;-2.40;99.90
22192;DHT22;11261;52.456;10.850;2023-03-01T03:20:14;-2.40;99.90
22192;DHT22;11261;52.456;10.850;2023-03-01T03:22:46;-2.50;99.90
22192;DHT22;11261;52.456;10.850;2023-03-01T03:25:15;-2.50;99.90
22192;DHT22;11261;52.456;10.850;2023-03-01T03:27:45;-2.50;99.90
22192;DHT22;11261;52.456;10.850;2023-03-01T03:30:17;-2.50;99.90
22192;DHT22;11261;52.456;10.850;2023-03-01T03:32:47;-2.60;99.90
22192;DHT22;11261;52.456;10.850;2023-03-01T03:35:20;-2.60;99.90
22192;DHT22;11261;52.456;10.850;2023-03-01T03:37:49;-2.70;99.90
22192;DHT22;11261;52.456;10.850;2023-03-01T03:40:32;-2.70;99.90
22192;DHT22;11261;52.456;10.850;2023-03-01T03:43:00;-2.70;99.90
22192;DHT22;11261;52.456;10.850;2023-03-01T03:45:30;-2.80;99.90
22192;DHT22;11261;52.456;10.850;2023-03-01T03:48:00;-2.70;99.90
22192;DHT22;11261;52.456;10.850;2023-03-01T03:50:29;-2.70;99.90
22192;DHT22;11261;52.456;10.850;2023-03-01T03:52:57;-2.70;99.90
22192;DHT22;11261;52.456;10.850;2023-03-01T03:55:28;-2.80;99.90
22192;DHT22;11261;52.456;10.850;2023-03-01T03:57:58;-2.70;99.90
22192;DHT22;11261;52.456;10.850;2023-03-01T04:00:36;-2.70;99.90
22192;DHT22;11261;52.456;10.850;2023-03-01T04:03:05;-2.70;99.90
22192;DHT22;11261;52.456;10.850;2023-03-01T04:05:35;-2.70;99.90
22192;DHT22;11261;52.456;10.850;2023-03-01T04:08:04;-2.80;99.90
22192;DHT22;11261;52.456;10.850;2023-03-01T04:10:38;-2.70;99.90
22192;DHT22;11261;52.456;10.850;2023-03-01T04:13:08;-2.80;99.90
22192;DHT22;11261;52.456;10.850;2023-03-01T04:15:39;-2.80;99.90
22192;DHT22;11261;52.456;10.850;2023-03-01T04:18:12;-2.80;99.90
22192;DHT22;11261;52.456;10.850;2023-03-01T04:20:42;-2.80;99.90
22192;DHT22;11261;52.456;10.850;2023-03-01T04:23:13;-2.80;99.90
22192;DHT22;11261;52.456;10.850;2023-03-01T04:25:47;-2.80;99.90
22192;DHT22;11261;52.456;10.850;2023-03-01T04:28:21;-2.80;99.90
22192;DHT22;11261;52.456;10.850;2023-03-01T04:30:54;-2.90;99.90
22192;DHT22;11261;52.456;10.850;2023-03-01T04:33:23;-2.90;99.90
22192;DHT22;11261;52.456;10.850;2023-03-01T04:35:52;-2.80;99.90
22192;DHT22;11261;52.456;10.850;2023-03-01T04:38:21;-2.80;99.90
22192;DHT22;11261;52.456;10.850;2023-03-01T04:40:49;-2.80;99.90
22192;DHT22;11261;52.456;10.850;2023-03-01T04:43:17;-2.90;99.90
22192;DHT22;11261;52.456;10.850;2023-03-01T04:45:46;-3.00;99.90
22192;DHT22;11261;52.456;10.850;2023-03-01T04:48:16;-3.00;99.90
22192;DHT22;11261;52.456;10.850;2023-03-01T04:50:44;-3.10;99.90
22192;DHT22;11261;52.456;10.850;2023-03-01T04:53:12;-3.10;99.90
22192;DHT22;11261;52.456;10.850;2023-03-01T04:55:40;-3.00;99.90
22192;DHT22;11261;52.456;10.850;2023-03-01T04:58:09;-3.00;99.90
22192;DHT22;11261;52.456;10.850;2023-03-01T05:00:37;-3.10;99.90
22192;DHT22;11261;52.456;10.850;2023-03-01T05:03:05;-3.10;99.90
22192;DHT22;11261;52.456;10.850;2023-03-01T05:05:37;-3.10;99.90
22192;DHT22;11261;52.456;10.850;2023-03-01T05:08:07;-3.10;99.90
22192;DHT22;11261;52.456;10.850;2023-03-01T05:10:36;-3.10;99.90
22192;DHT22;11261;52.456;10.850;2023-03-01T05:13:05;-3.30;99.90
22192;DHT22;11261;52.456;10.850;2023-03-01T05:15:34;-3.30;99.90
22192;DHT22;11261;52.456;10.850;2023-03-01T05:18:03;-3.20;99.90
22192;DHT22;11261;52.456;10.850;2023-03-01T05:20:39;-3.20;99.90
22192;DHT22;11261;52.456;10.850;2023-03-01T05:23:07;-3.20;99.90
22192;DHT22;11261;52.456;10.850;2023-03-01T05:25:36;-3.20;99.90
22192;DHT22;11261;52.456;10.850;2023-03-01T05:28:11;-3.40;99.90
22192;DHT22;11261;52.456;10.850;2023-03-01T05:30:39;-3.40;99.90
22192;DHT22;11261;52.456;10.850;2023-03-01T05:33:08;-3.30;99.90
22192;DHT22;11261;52.456;10.850;2023-03-01T05:35:42;-3.20;99.90
22192;DHT22;11261;52.456;10.850;2023-03-01T05:38:12;-3.20;99.90
22192;DHT22;11261;52.456;10.850;2023-03-01T05:40:41;-3.20;99.90
22192;DHT22;11261;52.456;10.850;2023-03-01T05:43:11;-3.20;99.90
22192;DHT22;11261;52.456;10.850;2023-03-01T05:45:40;-3.30;99.90
22192;DHT22;11261;52.456;10.850;2023-03-01T05:48:09;-3.30;99.90
22192;DHT22;11261;52.456;10.850;2023-03-01T05:50:41;-3.30;99.90
22192;DHT22;11261;52.456;10.850;2023-03-01T05:53:11;-3.30;99.90
22192;DHT22;11261;52.456;10.850;2023-03-01T05:55:41;-3.40;99.90
22192;DHT22;11261;52.456;10.850;2023-03-01T05:58:12;-3.40;99.90
22192;DHT22;11261;52.456;10.850;2023-03-01T06:00:42;-3.40;99.90
22192;DHT22;11261;52.456;10.850;2023-03-01T06:03:11;-3.30;99.90
22192;DHT22;11261;52.456;10.850;2023-03-01T06:05:42;-3.40;99.90
22192;DHT22;11261;52.456;10.850;2023-03-01T06:08:12;-3.30;99.90
22192;DHT22;11261;52.456;10.850;2023-03-01T06:10:41;-3.30;99.90
22192;DHT22;11261;52.456;10.850;2023-03-01T06:13:09;-3.30;99.90
22192;DHT22;11261;52.456;10.850;2023-03-01T06:15:37;-3.20;99.90
22192;DHT22;11261;52.456;10.850;2023-03-01T06:18:05;-3.20;99.90
22192;DHT22;11261;52.456;10.850;2023-03-01T06:20:34;-3.20;99.90
22192;DHT22;11261;52.456;10.850;2023-03-01T06:23:03;-3.20;99.90
22192;DHT22;11261;52.456;10.850;2023-03-01T06:25:33;-3.10;99.90
22192;DHT22;11261;52.456;10.850;2023-03-01T06:28:01;-2.90;99.90
22192;DHT22;11261;52.456;10.850;2023-03-01T06:30:29;-2.60;99.90
22192;DHT22;11261;52.456;10.850;2023-03-01T06:32:57;-2.30;99.90
22192;DHT22;11261;52.456;10.850;2023-03-01T06:35:28;-2.10;99.90
22192;DHT22;11261;52.456;10.850;2023-03-01T06:37:58;-1.70;99.90
22192;DHT22;11261;52.456;10.850;2023-03-01T06:40:29;-1.40;99.90
22192;DHT22;11261;52.456;10.850;2023-03-01T06:42:58;-1.00;99.90
22192;DHT22;11261;52.456;10.850;2023-03-01T06:45:27;-0.60;99.90
22192;DHT22;11261;52.456;10.850;2023-03-01T06:48:03;-0.10;99.90
22192;DHT22;11261;52.456;10.850;2023-03-01T06:50:32;0.40;99.90
22192;DHT22;11261;52.456;10.850;2023-03-01T06:53:00;0.80;99.90
22192;DHT22;11261;52.456;10.850;2023-03-01T06:55:30;0.80;99.90
22192;DHT22;11261;52.456;10.850;2023-03-01T06:58:00;1.00;99.90
22192;DHT22;11261;52.456;10.850;2023-03-01T07:00:29;1.80;99.90
22192;DHT22;11261;52.456;10.850;2023-03-01T07:03:00;2.00;99.90
22192;DHT22;11261;52.456;10.850;2023-03-01T07:05:30;2.10;99.90
22192;DHT22;11261;52.456;10.850;2023-03-01T07:07:58;1.70;99.90
22192;DHT22;11261;52.456;10.850;2023-03-01T07:10:26;2.50;99.90
22192;DHT22;11261;52.456;10.850;2023-03-01T07:12:57;3.20;99.90
22192;DHT22;11261;52.456;10.850;2023-03-01T07:15:27;3.50;99.90
22192;DHT22;11261;52.456;10.850;2023-03-01T07:17:56;3.90;99.90
22192;DHT22;11261;52.456;10.850;2023-03-01T07:20:24;4.30;99.90
22192;DHT22;11261;52.456;10.850;2023-03-01T07:22:53;4.50;99.90
22192;DHT22;11261;52.456;10.850;2023-03-01T07:25:23;4.70;99.90
22192;DHT22;11261;52.456;10.850;2023-03-01T07:27:52;5.00;99.90
22192;DHT22;11261;52.456;10.850;2023-03-01T07:30:22;5.00;99.90
22192;DHT22;11261;52.456;10.850;2023-03-01T07:32:53;5.10;99.90
22192;DHT22;11261;52.456;10.850;2023-03-01T07:35:22;5.30;99.90
22192;DHT22;11261;52.456;10.850;2023-03-01T07:37:51;5.40;99.90
22192;DHT22;11261;52.456;10.850;2023-03-01T07:40:19;4.50;99.90
22192;DHT22;11261;52.456;10.850;2023-03-01T07:42:48;5.20;99.90
22192;DHT22;11261;52.456;10.850;2023-03-01T07:45:16;5.30;99.90
22192;DHT22;11261;52.456;10.850;2023-03-01T07:47:46;5.30;99.90
22192;DHT22;11261;52.456;10.850;2023-03-01T07:50:14;6.00;99.90
22192;DHT22;11261;52.456;10.850;2023-03-01T07:52:45;6.00;99.90
22192;DHT22;11261;52.456;10.850;2023-03-01T07:55:14;6.20;99.90
22192;DHT22;11261;52.456;10.850;2023-03-01T07:57:42;6.50;99.90
22192;DHT22;11261;52.456;10.850;2023-03-01T08:00:11;5.50;99.90
22192;DHT22;11261;52.456;10.850;2023-03-01T08:02:40;6.40;99.90
22192;DHT22;11261;52.456;10.850;2023-03-01T08:05:10;7.00;99.90
22192;DHT22;11261;52.456;10.850;2023-03-01T08:07:38;6.60;99.90
22192;DHT22;11261;52.456;10.850;2023-03-01T08:10:08;7.50;99.90
22192;DHT22;11261;52.456;10.850;2023-03-01T08:12:36;8.20;99.90
22192;DHT22;11261;52.456;10.850;2023-03-01T08:15:06;8.30;99.80
22192;DHT22;11261;52.456;10.850;2023-03-01T08:17:35;8.40;99.90
22192;DHT22;11261;52.456;10.850;2023-03-01T08:20:04;8.20;99.50
22192;DHT22;11261;52.456;10.850;2023-03-01T08:22:34;8.30;99.30
22192;DHT22;11261;52.456;10.850;2023-03-01T08:25:03;8.30;98.30
22192;DHT22;11261;52.456;10.850;2023-03-01T08:27:31;7.90;99.80
22192;DHT22;11261;52.456;10.850;2023-03-01T08:29:59;8.20;99.60
22192;DHT22;11261;52.456;10.850;2023-03-01T08:32:28;7.80;99.50
22192;DHT22;11261;52.456;10.850;2023-03-01T08:34:56;7.60;99.90
22192;DHT22;11261;52.456;10.850;2023-03-01T08:37:25;7.90;99.90
22192;DHT22;11261;52.456;10.850;2023-03-01T08:39:56;7.80;99.90
22192;DHT22;11261;52.456;10.850;2023-03-01T08:42:24;7.90;99.90
22192;DHT22;11261;52.456;10.850;2023-03-01T08:44:53;8.70;99.90
22192;DHT22;11261;52.456;10.850;2023-03-01T08:47:21;8.80;99.30
22192;DHT22;11261;52.456;10.850;2023-03-01T08:49:50;8.90;99.10
22192;DHT22;11261;52.456;10.850;2023-03-01T08:52:19;7.90;99.50
22192;DHT22;11261;52.456;10.850;2023-03-01T08:54:48;7.80;99.90
22192;DHT22;11261;52.456;10.850;2023-03-01T08:57:18;8.70;99.90
22192;DHT22;11261;52.456;10.850;2023-03-01T08:59:46;8.80;99.50
22192;DHT22;11261;52.456;10.850;2023-03-01T09:02:16;9.30;99.00
22192;DHT22;11261;52.456;10.850;2023-03-01T09:04:45;9.70;98.70
22192;DHT22;11261;52.456;10.850;2023-03-01T09:07:14;10.20;97.70
22192;DHT22;11261;52.456;10.850;2023-03-01T09:09:42;10.00;97.70
22192;DHT22;11261;52.456;10.850;2023-03-01T09:12:10;9.60;99.90
22192;DHT22;11261;52.456;10.850;2023-03-01T09:14:40;9.00;99.20
22192;DHT22;11261;52.456;10.850;2023-03-01T09:17:08;9.40;98.10
22192;DHT22;11261;52.456;10.850;2023-03-01T09:19:37;9.00;98.70
22192;DHT22;11261;52.456;10.850;2023-03-01T09:22:05;8.90;98.20
22192;DHT22;11261;52.456;10.850;2023-03-01T09:24:34;9.00;98.30
22192;DHT22;11261;52.456;10.850;2023-03-01T09:27:02;9.30;98.80
22192;DHT22;11261;52.456;10.850;2023-03-01T09:29:35;9.90;99.40
22192;DHT22;11261;52.456;10.850;2023-03-01T09:32:05;9.90;95.90
22192;DHT22;11261;52.456;10.850;2023-03-01T09:34:35;9.00;97.50
22192;DHT22;11261;52.456;10.850;2023-03-01T09:37:24;8.70;96.70
22192;DHT22;11261;52.456;10.850;2023-03-01T09:39:52;8.70;98.10
22192;DHT22;11261;52.456;10.850;2023-03-01T09:42:20;9.20;97.30
22192;DHT22;11261;52.456;10.850;2023-03-01T09:44:52;9.70;94.80
22192;DHT22;11261;52.456;10.850;2023-03-01T09:47:25;9.40;96.20
22192;DHT22;11261;52.456;10.850;2023-03-01T09:50:02;9.80;94.60
22192;DHT22;11261;52.456;10.850;2023-03-01T09:52:38;10.50;95.00
22192;DHT22;11261;52.456;10.850;2023-03-01T09:55:11;9.10;95.90
22192;DHT22;11261;52.456;10.850;2023-03-01T09:57:46;8.80;95.80
22192;DHT22;11261;52.456;10.850;2023-03-01T10:00:30;9.40;95.50
22192;DHT22;11261;52.456;10.850;2023-03-01T10:03:10;9.10;95.70
22192;DHT22;11261;52.456;10.850;2023-03-01T10:05:59;8.70;95.00
22192;DHT22;11261;52.456;10.850;2023-03-01T10:08:30;8.40;95.50
22192;DHT22;11261;52.456;10.850;2023-03-01T10:11:04;7.30;96.20
22192;DHT22;11261;52.456;10.850;2023-03-01T10:13:42;8.30;96.20
22192;DHT22;11261;52.456;10.850;2023-03-01T10:16:16;9.90;93.60
22192;DHT22;11261;52.456;10.850;2023-03-01T10:18:52;9.10;93.30
22192;DHT22;11261;52.456;10.850;2023-03-01T10:21:21;8.10;94.70
22192;DHT22;11261;52.456;10.850;2023-03-01T10:23:51;8.20;94.30
22192;DHT22;11261;52.456;10.850;2023-03-01T10:26:33;8.50;94.50
22192;DHT22;11261;52.456;10.850;2023-03-01T10:29:05;8.50;93.90
22192;DHT22;11261;52.456;10.850;2023-03-01T10:31:40;10.20;93.70
22192;DHT22;11261;52.456;10.850;2023-03-01T10:34:14;10.30;92.50
22192;DHT22;11261;52.456;10.850;2023-03-01T10:36:44;9.00;93.40
22192;DHT22;11261;52.456;10.850;2023-03-01T10:39:16;8.60;94.00
22192;DHT22;11261;52.456;10.850;2023-03-01T10:41:59;9.00;99.90
22192;DHT22;11261;52.456;10.850;2023-03-01T10:44:39;8.40;93.40
22192;DHT22;11261;52.456;10.850;2023-03-01T10:47:19;7.00;95.80
22192;DHT22;11261;52.456;10.850;2023-03-01T10:50:00;8.90;95.00
22192;DHT22;11261;52.456;10.850;2023-03-01T10:52:32;8.30;93.20
22192;DHT22;11261;52.456;10.850;2023-03-01T10:55:04;7.50;94.00
22192;DHT22;11261;52.456;10.850;2023-03-01T10:57:37;8.00;93.70
22192;DHT22;11261;52.456;10.850;2023-03-01T11:00:24;7.80;93.80
22192;DHT22;11261;52.456;10.850;2023-03-01T11:03:09;8.20;92.60
22192;DHT22;11261;52.456;10.850;2023-03-01T11:05:53;8.80;93.00
22192;DHT22;11261;52.456;10.850;2023-03-01T11:08:42;8.10;92.90
22192;DHT22;11261;52.456;10.850;2023-03-01T11:11:17;8.60;92.50
22192;DHT22;11261;52.456;10.850;2023-03-01T11:13:53;9.00;92.30
22192;DHT22;11261;52.456;10.850;2023-03-01T11:16:26;9.10;93.00
22192;DHT22;11261;52.456;10.850;2023-03-01T11:19:04;9.00;93.70
22192;DHT22;11261;52.456;10.850;2023-03-01T11:21:35;9.60;91.70
22192;DHT22;11261;52.456;10.850;2023-03-01T11:24:09;8.30;92.20
22192;DHT22;11261;52.456;10.850;2023-03-01T11:26:41;8.90;93.20
22192;DHT22;11261;52.456;10.850;2023-03-01T11:29:17;10.20;91.60
22192;DHT22;11261;52.456;10.850;2023-03-01T11:31:49;10.30;91.30
22192;DHT22;11261;52.456;10.850;2023-03-01T11:34:33;9.50;96.00
22192;DHT22;11261;52.456;10.850;2023-03-01T11:37:15;8.90;91.60
22192;DHT22;11261;52.456;10.850;2023-03-01T11:39:51;8.60;92.20
22192;DHT22;11261;52.456;10.850;2023-03-01T11:42:29;8.60;91.20
22192;DHT22;11261;52.456;10.850;2023-03-01T11:45:05;8.30;92.40
22192;DHT22;11261;52.456;10.850;2023-03-01T11:47:55;8.70;99.90
22192;DHT22;11261;52.456;10.850;2023-03-01T11:50:32;8.80;99.90
22192;DHT22;11261;52.456;10.850;2023-03-01T11:53:29;8.90;94.10
22192;DHT22;11261;52.456;10.850;2023-03-01T11:56:05;8.80;95.40
22192;DHT22;11261;52.456;10.850;2023-03-01T11:58:56;8.70;92.30
22192;DHT22;11261;52.456;10.850;2023-03-01T12:01:40;9.10;91.80
22192;DHT22;11261;52.456;10.850;2023-03-01T12:07:24;8.30;91.20
22192;DHT22;11261;52.456;10.850;2023-03-01T12:10:15;7.30;93.80
22192;DHT22;11261;52.456;10.850;2023-03-01T12:13:08;7.50;92.50
22192;DHT22;11261;52.456;10.850;2023-03-01T12:15:45;7.80;94.20
22192;DHT22;11261;52.456;10.850;2023-03-01T12:18:27;8.30;91.00
22192;DHT22;11261;52.456;10.850;2023-03-01T12:21:12;9.00;93.10
22192;DHT22;11261;52.456;10.850;2023-03-01T12:26:54;8.60;95.30
22192;DHT22;11261;52.456;10.850;2023-03-01T12:29:31;8.30;92.70
22192;DHT22;11261;52.456;10.850;2023-03-01T12:32:17;8.90;90.50
22192;DHT22;11261;52.456;10.850;2023-03-01T12:35:01;8.30;97.60
22192;DHT22;11261;52.456;10.850;2023-03-01T12:37:38;8.30;91.80
22192;DHT22;11261;52.456;10.850;2023-03-01T12:40:33;8.20;91.20
22192;DHT22;11261;52.456;10.850;2023-03-01T12:43:19;8.80;92.80
22192;DHT22;11261;52.456;10.850;2023-03-01T12:46:01;8.80;91.90
22192;DHT22;11261;52.456;10.850;2023-03-01T12:48:43;8.20;94.30
22192;DHT22;11261;52.456;10.850;2023-03-01T12:51:18;8.60;93.80
22192;DHT22;11261;52.456;10.850;2023-03-01T12:53:49;8.90;98.70
22192;DHT22;11261;52.456;10.850;2023-03-01T12:56:22;8.80;93.70
22192;DHT22;11261;52.456;10.850;2023-03-01T12:58:58;9.00;99.30
22192;DHT22;11261;52.456;10.850;2023-03-01T13:01:39;8.50;93.80
22192;DHT22;11261;52.456;10.850;2023-03-01T13:04:19;8.40;93.90
22192;DHT22;11261;52.456;10.850;2023-03-01T13:07:04;8.00;96.70
22192;DHT22;11261;52.456;10.850;2023-03-01T13:09:40;8.10;95.10
22192;DHT22;11261;52.456;10.850;2023-03-01T13:12:41;7.70;97.00
22192;DHT22;11261;52.456;10.850;2023-03-01T13:18:28;8.60;98.10
22192;DHT22;11261;52.456;10.850;2023-03-01T13:20:59;8.70;93.50
22192;DHT22;11261;52.456;10.850;2023-03-01T13:23:31;8.60;98.60
22192;DHT22;11261;52.456;10.850;2023-03-01T13:26:05;8.30;98.60
22192;DHT22;11261;52.456;10.850;2023-03-01T13:34:43;8.50;96.50
22192;DHT22;11261;52.456;10.850;2023-03-01T13:37:29;8.20;96.30
22192;DHT22;11261;52.456;10.850;2023-03-01T13:40:03;7.90;94.10
22192;DHT22;11261;52.456;10.850;2023-03-01T13:42:41;8.00;93.60
22192;DHT22;11261;52.456;10.850;2023-03-01T13:45:25;8.30;99.90
22192;DHT22;11261;52.456;10.850;2023-03-01T13:48:02;8.70;94.40
22192;DHT22;11261;52.456;10.850;2023-03-01T13:50:45;8.70;95.00
22192;DHT22;11261;52.456;10.850;2023-03-01T13:53:17;8.70;97.40
22192;DHT22;11261;52.456;10.850;2023-03-01T13:55:48;8.10;92.30
22192;DHT22;11261;52.456;10.850;2023-03-01T13:58:23;8.10;94.10
22192;DHT22;11261;52.456;10.850;2023-03-01T14:00:57;8.00;92.90
22192;DHT22;11261;52.456;10.850;2023-03-01T14:03:26;7.70;91.60
22192;DHT22;11261;52.456;10.850;2023-03-01T14:06:03;8.10;93.30
22192;DHT22;11261;52.456;10.850;2023-03-01T14:08:43;7.80;91.70
22192;DHT22;11261;52.456;10.850;2023-03-01T14:14:45;8.00;91.10
22192;DHT22;11261;52.456;10.850;2023-03-01T14:20:25;8.00;90.40
22192;DHT22;11261;52.456;10.850;2023-03-01T14:22:58;7.90;98.30
22192;DHT22;11261;52.456;10.850;2023-03-01T14:25:28;8.10;94.50
22192;DHT22;11261;52.456;10.850;2023-03-01T14:28:00;8.20;95.90
22192;DHT22;11261;52.456;10.850;2023-03-01T14:30:34;8.00;91.00
22192;DHT22;11261;52.456;10.850;2023-03-01T14:33:16;8.10;95.00
22192;DHT22;11261;52.456;10.850;2023-03-01T14:35:53;7.90;90.40
22192;DHT22;11261;52.456;10.850;2023-03-01T14:38:28;7.50;90.20
22192;DHT22;11261;52.456;10.850;2023-03-01T14:40:59;7.80;90.60
22192;DHT22;11261;52.456;10.850;2023-03-01T14:43:32;8.10;89.90
22192;DHT22;11261;52.456;10.850;2023-03-01T14:46:01;8.00;89.70
22192;DHT22;11261;52.456;10.850;2023-03-01T14:48:30;7.80;91.70
22192;DHT22;11261;52.456;10.850;2023-03-01T14:50:59;8.00;90.00
22192;DHT22;11261;52.456;10.850;2023-03-01T14:53:29;7.60;88.30
22192;DHT22;11261;52.456;10.850;2023-03-01T14:56:16;7.60;88.50
22192;DHT22;11261;52.456;10.850;2023-03-01T14:58:46;7.70;89.30
22192;DHT22;11261;52.456;10.850;2023-03-01T15:01:17;7.70;90.00
22192;DHT22;11261;52.456;10.850;2023-03-01T15:03:47;7.70;88.00
22192;DHT22;11261;52.456;10.850;2023-03-01T15:06:18;7.50;86.90
22192;DHT22;11261;52.456;10.850;2023-03-01T15:08:49;7.50;87.00
22192;DHT22;11261;52.456;10.850;2023-03-01T15:11:20;7.60;87.50
22192;DHT22;11261;52.456;10.850;2023-03-01T15:13:51;7.60;84.50
22192;DHT22;11261;52.456;10.850;2023-03-01T15:16:23;7.80;86.00
22192;DHT22;11261;52.456;10.850;2023-03-01T15:18:54;7.90;90.40
22192;DHT22;11261;52.456;10.850;2023-03-01T15:21:24;7.70;84.80
22192;DHT22;11261;52.456;10.850;2023-03-01T15:23:59;7.80;90.70
22192;DHT22;11261;52.456;10.850;2023-03-01T15:26:31;7.70;93.80
22192;DHT22;11261;52.456;10.850;2023-03-01T15:29:01;7.80;93.30
22192;DHT22;11261;52.456;10.850;2023-03-01T15:31:32;7.80;90.60
22192;DHT22;11261;52.456;10.850;2023-03-01T15:34:10;7.70;87.70
22192;DHT22;11261;52.456;10.850;2023-03-01T15:36:46;7.70;93.00
22192;DHT22;11261;52.456;10.850;2023-03-01T15:39:39;7.60;91.10
22192;DHT22;11261;52.456;10.850;2023-03-01T15:42:12;7.50;90.40
22192;DHT22;11261;52.456;10.850;2023-03-01T15:44:43;7.50;90.90
22192;DHT22;11261;52.456;10.850;2023-03-01T15:47:29;7.80;95.80
22192;DHT22;11261;52.456;10.850;2023-03-01T15:49:59;7.80;95.70
22192;DHT22;11261;52.456;10.850;2023-03-01T15:52:32;7.60;93.00
22192;DHT22;11261;52.456;10.850;2023-03-01T15:55:12;7.40;92.90
22192;DHT22;11261;52.456;10.850;2023-03-01T15:57:42;7.50;95.10
22192;DHT22;11261;52.456;10.850;2023-03-01T16:00:11;7.30;95.20
22192;DHT22;11261;52.456;10.850;2023-03-01T16:02:41;7.20;93.10
22192;DHT22;11261;52.456;10.850;2023-03-01T16:05:17;7.20;95.80
22192;DHT22;11261;52.456;10.850;2023-03-01T16:11:10;6.90;95.20
22192;DHT22;11261;52.456;10.850;2023-03-01T16:13:41;6.80;96.30
22192;DHT22;11261;52.456;10.850;2023-03-01T16:16:10;6.80;93.90
22192;DHT22;11261;52.456;10.850;2023-03-01T16:18:42;6.80;93.60
22192;DHT22;11261;52.456;10.850;2023-03-01T16:21:20;6.80;95.30
22192;DHT22;11261;52.456;10.850;2023-03-01T16:23:48;6.80;98.00